sensor_id;sensor_type;location;lat;lon;timestamp;P1;durP1;ratioP1;P2;durP2;ratioP2
76403;SDS011;65232;48.358;2.122;2023-02-28T00:00:17;9.40;;;5.68;;
76403;SDS011;65232;48.358;2.122;2023-02-28T00:00:44;6.47;;;5.63;;
76403;SDS011;65232;48.358;2.122;2023-02-28T00:01:10;6.70;;;5.90;;
76403;SDS011;65232;48.358;2.122;2023-02-28T00:01:37;6.60;;;6.00;;
76403;SDS011;65232;48.358;2.122;2023-02-28T00:02:02;6.65;;;6.05;;
76403;SDS011;65232;48.358;2.122;2023-02-28T00:02:28;9.93;;;6.53;;
76403;SDS011;65232;48.358;2.122;2023-02-28T00:02:53;9.63;;;7.00;;
76403;SDS011;65232;48.358;2.122;2023-02-28T00:03:19;9.05;;;7.40;;
76403;SDS011;65232;48.358;2.122;2023-02-28T00:03:44;7.60;;;6.80;;
76403;SDS011;65232;48.358;2.122;2023-02-28T00:04:10;7.18;;;6.47;;
76403;SDS011;65232;48.358;2.122;2023-02-28T00:04:35;8.40;;;6.47;;
76403;SDS011;65232;48.358;2.122;2023-02-28T00:05:01;7.95;;;6.82;;
76403;SDS011;65232;48.358;2.122;2023-02-28T00:05:28;9.05;;;7.25;;
76403;SDS011;65232;48.358;2.122;2023-02-28T00:05:54;8.90;;;6.55;;
76403;SDS011;65232;48.358;2.122;2023-02-28T00:06:19;9.20;;;6.32;;
76403;SDS011;65232;48.358;2.122;2023-02-28T00:06:45;7.15;;;6.45;;
76403;SDS011;65232;48.358;2.122;2023-02-28T00:07:11;9.00;;;6.50;;
76403;SDS011;65232;48.358;2.122;2023-02-28T00:07:36;8.27;;;6.93;;
76403;SDS011;65232;48.358;2.122;2023-02-28T00:08:02;7.97;;;6.65;;
76403;SDS011;65232;48.358;2.122;2023-02-28T00:08:28;8.05;;;6.68;;
76403;SDS011;65232;48.358;2.122;2023-02-28T00:08:53;7.53;;;6.82;;
76403;SDS011;65232;48.358;2.122;2023-02-28T00:09:19;8.73;;;6.80;;
76403;SDS011;65232;48.358;2.122;2023-02-28T00:09:45;7.07;;;6.47;;
76403;SDS011;65232;48.358;2.122;2023-02-28T00:10:12;7.68;;;6.90;;
76403;SDS011;65232;48.358;2.122;2023-02-28T00:10:45;7.30;;;6.55;;
76403;SDS011;65232;48.358;2.122;2023-02-28T00:11:11;11.55;;;7.20;;
76403;SDS011;65232;48.358;2.122;2023-02-28T00:11:40;8.35;;;6.15;;
76403;SDS011;65232;48.358;2.122;2023-02-28T00:12:05;7.20;;;6.55;;
76403;SDS011;65232;48.358;2.122;2023-02-28T00:12:35;8.88;;;7.20;;
76403;SDS011;65232;48.358;2.122;2023-02-28T00:13:04;8.05;;;6.53;;
76403;SDS011;65232;48.358;2.122;2023-02-28T00:13:31;8.18;;;6.72;;
76403;SDS011;65232;48.358;2.122;2023-02-28T00:13:56;7.95;;;6.20;;
76403;SDS011;65232;48.358;2.122;2023-02-28T00:14:22;9.40;;;6.90;;
76403;SDS011;65232;48.358;2.122;2023-02-28T00:14:47;6.82;;;6.13;;
76403;SDS011;65232;48.358;2.122;2023-02-28T00:15:13;7.70;;;6.65;;
76403;SDS011;65232;48.358;2.122;2023-02-28T00:15:40;7.63;;;6.57;;
76403;SDS011;65232;48.358;2.122;2023-02-28T00:16:10;7.22;;;6.30;;
76403;SDS011;65232;48.358;2.122;2023-02-28T00:16:38;7.45;;;6.07;;
76403;SDS011;65232;48.358;2.122;2023-02-28T00:17:03;7.90;;;6.72;;
76403;SDS011;65232;48.358;2.122;2023-02-28T00:17:29;7.47;;;6.65;;
76403;SDS011;65232;48.358;2.122;2023-02-28T00:17:54;7.63;;;6.93;;
76403;SDS011;65232;48.358;2.122;2023-02-28T00:18:20;9.18;;;6.70;;
76403;SDS011;65232;48.358;2.122;2023-02-28T00:18:46;7.60;;;6.75;;
76403;SDS011;65232;48.358;2.122;2023-02-28T00:19:14;8.27;;;7.05;;
76403;SDS011;65232;48.358;2.122;2023-02-28T00:19:40;7.85;;;7.05;;
76403;SDS011;65232;48.358;2.122;2023-02-28T00:20:05;7.93;;;6.78;;
76403;SDS011;65232;48.358;2.122;2023-02-28T00:20:35;9.50;;;6.93;;
76403;SDS011;65232;48.358;2.122;2023-02-28T00:21:00;8.48;;;7.15;;
76403;SDS011;65232;48.358;2.122;2023-02-28T00:21:26;8.20;;;7.15;;
76403;SDS011;65232;48.358;2.122;2023-02-28T00:21:51;9.35;;;7.20;;
76403;SDS011;65232;48.358;2.122;2023-02-28T00:22:18;7.82;;;6.55;;
76403;SDS011;65232;48.358;2.122;2023-02-28T00:22:46;10.00;;;7.13;;
76403;SDS011;65232;48.358;2.122;2023-02-28T00:23:15;9.13;;;6.93;;
76403;SDS011;65232;48.358;2.122;2023-02-28T00:23:40;7.68;;;6.88;;
76403;SDS011;65232;48.358;2.122;2023-02-28T00:24:06;7.88;;;7.07;;
76403;SDS011;65232;48.358;2.122;2023-02-28T00:24:32;7.82;;;7.00;;
76403;SDS011;65232;48.358;2.122;2023-02-28T00:24:57;8.50;;;6.85;;
76403;SDS011;65232;48.358;2.122;2023-02-28T00:25:23;9.45;;;6.72;;
76403;SDS011;65232;48.358;2.122;2023-02-28T00:25:50;9.80;;;7.28;;
76403;SDS011;65232;48.358;2.122;2023-02-28T00:26:16;7.30;;;6.38;;
76403;SDS011;65232;48.358;2.122;2023-02-28T00:26:44;7.68;;;6.88;;
76403;SDS011;65232;48.358;2.122;2023-02-28T00:27:09;8.82;;;7.15;;
76403;SDS011;65232;48.358;2.122;2023-02-28T00:27:35;10.15;;;7.72;;
76403;SDS011;65232;48.358;2.122;2023-02-28T00:28:03;9.65;;;7.15;;
76403;SDS011;65232;48.358;2.122;2023-02-28T00:28:29;10.20;;;8.23;;
76403;SDS011;65232;48.358;2.122;2023-02-28T00:28:56;8.77;;;7.40;;
76403;SDS011;65232;48.358;2.122;2023-02-28T00:29:21;9.70;;;7.47;;
76403;SDS011;65232;48.358;2.122;2023-02-28T00:29:47;9.07;;;7.53;;
76403;SDS011;65232;48.358;2.122;2023-02-28T00:30:17;8.57;;;7.30;;
76403;SDS011;65232;48.358;2.122;2023-02-28T00:30:47;7.85;;;7.10;;
76403;SDS011;65232;48.358;2.122;2023-02-28T00:31:12;10.32;;;7.32;;
76403;SDS011;65232;48.358;2.122;2023-02-28T00:31:38;10.73;;;7.72;;
76403;SDS011;65232;48.358;2.122;2023-02-28T00:32:04;8.95;;;7.53;;
76403;SDS011;65232;48.358;2.122;2023-02-28T00:32:30;8.75;;;7.15;;
76403;SDS011;65232;48.358;2.122;2023-02-28T00:32:55;8.23;;;7.40;;
76403;SDS011;65232;48.358;2.122;2023-02-28T00:33:21;7.82;;;6.97;;
76403;SDS011;65232;48.358;2.122;2023-02-28T00:33:46;11.32;;;8.07;;
76403;SDS011;65232;48.358;2.122;2023-02-28T00:34:13;9.77;;;8.52;;
76403;SDS011;65232;48.358;2.122;2023-02-28T00:34:39;10.07;;;8.13;;
76403;SDS011;65232;48.358;2.122;2023-02-28T00:35:05;8.60;;;7.70;;
76403;SDS011;65232;48.358;2.122;2023-02-28T00:35:31;9.30;;;7.60;;
76403;SDS011;65232;48.358;2.122;2023-02-28T00:36:03;11.85;;;8.27;;
76403;SDS011;65232;48.358;2.122;2023-02-28T00:36:30;8.57;;;7.63;;
76403;SDS011;65232;48.358;2.122;2023-02-28T00:36:56;9.40;;;8.25;;
76403;SDS011;65232;48.358;2.122;2023-02-28T00:37:21;9.52;;;8.55;;
76403;SDS011;65232;48.358;2.122;2023-02-28T00:37:47;8.90;;;7.60;;
76403;SDS011;65232;48.358;2.122;2023-02-28T00:38:14;8.85;;;7.90;;
76403;SDS011;65232;48.358;2.122;2023-02-28T00:38:40;9.05;;;8.00;;
76403;SDS011;65232;48.358;2.122;2023-02-28T00:39:06;8.43;;;7.63;;
76403;SDS011;65232;48.358;2.122;2023-02-28T00:39:33;9.70;;;8.23;;
76403;SDS011;65232;48.358;2.122;2023-02-28T00:40:00;9.85;;;8.25;;
76403;SDS011;65232;48.358;2.122;2023-02-28T00:40:26;10.48;;;8.00;;
76403;SDS011;65232;48.358;2.122;2023-02-28T00:40:52;7.78;;;7.07;;
76403;SDS011;65232;48.358;2.122;2023-02-28T00:41:17;9.98;;;7.75;;
76403;SDS011;65232;48.358;2.122;2023-02-28T00:41:43;8.73;;;7.70;;
76403;SDS011;65232;48.358;2.122;2023-02-28T00:42:08;8.95;;;7.97;;
76403;SDS011;65232;48.358;2.122;2023-02-28T00:42:34;9.90;;;8.70;;
76403;SDS011;65232;48.358;2.122;2023-02-28T00:43:00;10.07;;;9.07;;
76403;SDS011;65232;48.358;2.122;2023-02-28T00:43:26;10.10;;;8.27;;
76403;SDS011;65232;48.358;2.122;2023-02-28T00:43:51;9.48;;;8.57;;
76403;SDS011;65232;48.358;2.122;2023-02-28T00:44:16;12.27;;;9.20;;
76403;SDS011;65232;48.358;2.122;2023-02-28T00:44:42;10.57;;;9.43;;
76403;SDS011;65232;48.358;2.122;2023-02-28T00:45:08;10.65;;;8.55;;
76403;SDS011;65232;48.358;2.122;2023-02-28T00:45:36;9.73;;;8.73;;
76403;SDS011;65232;48.358;2.122;2023-02-28T00:46:03;10.93;;;9.05;;
76403;SDS011;65232;48.358;2.122;2023-02-28T00:46:29;10.30;;;8.93;;
76403;SDS011;65232;48.358;2.122;2023-02-28T00:46:57;12.57;;;9.90;;
76403;SDS011;65232;48.358;2.122;2023-02-28T00:47:25;10.85;;;9.63;;
76403;SDS011;65232;48.358;2.122;2023-02-28T00:47:51;10.30;;;9.20;;
76403;SDS011;65232;48.358;2.122;2023-02-28T00:48:17;10.13;;;9.13;;
76403;SDS011;65232;48.358;2.122;2023-02-28T00:48:42;12.32;;;9.85;;
76403;SDS011;65232;48.358;2.122;2023-02-28T00:49:08;10.50;;;9.38;;
76403;SDS011;65232;48.358;2.122;2023-02-28T00:49:34;9.88;;;8.52;;
76403;SDS011;65232;48.358;2.122;2023-02-28T00:50:01;9.90;;;8.55;;
76403;SDS011;65232;48.358;2.122;2023-02-28T00:50:27;11.60;;;9.43;;
76403;SDS011;65232;48.358;2.122;2023-02-28T00:50:52;10.50;;;8.35;;
76403;SDS011;65232;48.358;2.122;2023-02-28T00:51:18;10.68;;;9.65;;
76403;SDS011;65232;48.358;2.122;2023-02-28T00:51:44;11.30;;;9.45;;
76403;SDS011;65232;48.358;2.122;2023-02-28T00:52:09;12.15;;;9.45;;
76403;SDS011;65232;48.358;2.122;2023-02-28T00:52:35;11.38;;;10.18;;
76403;SDS011;65232;48.358;2.122;2023-02-28T00:53:00;11.95;;;9.98;;
76403;SDS011;65232;48.358;2.122;2023-02-28T00:53:26;11.80;;;9.85;;
76403;SDS011;65232;48.358;2.122;2023-02-28T00:53:51;12.75;;;9.70;;
76403;SDS011;65232;48.358;2.122;2023-02-28T00:54:17;10.52;;;9.45;;
76403;SDS011;65232;48.358;2.122;2023-02-28T00:54:42;11.13;;;9.57;;
76403;SDS011;65232;48.358;2.122;2023-02-28T00:55:08;10.63;;;9.52;;
76403;SDS011;65232;48.358;2.122;2023-02-28T00:55:33;11.20;;;9.43;;
76403;SDS011;65232;48.358;2.122;2023-02-28T00:55:59;10.07;;;9.07;;
76403;SDS011;65232;48.358;2.122;2023-02-28T00:56:50;12.45;;;8.13;;
76403;SDS011;65232;48.358;2.122;2023-02-28T00:57:16;8.90;;;8.00;;
76403;SDS011;65232;48.358;2.122;2023-02-28T00:57:41;9.25;;;8.18;;
76403;SDS011;65232;48.358;2.122;2023-02-28T00:58:08;9.85;;;8.85;;
76403;SDS011;65232;48.358;2.122;2023-02-28T00:58:33;9.63;;;8.73;;
76403;SDS011;65232;48.358;2.122;2023-02-28T00:58:59;10.32;;;8.95;;
76403;SDS011;65232;48.358;2.122;2023-02-28T00:59:24;10.48;;;9.38;;
76403;SDS011;65232;48.358;2.122;2023-02-28T00:59:50;13.48;;;9.57;;
76403;SDS011;65232;48.358;2.122;2023-02-28T01:00:15;11.32;;;9.07;;
76403;SDS011;65232;48.358;2.122;2023-02-28T01:00:42;11.73;;;9.82;;
76403;SDS011;65232;48.358;2.122;2023-02-28T01:01:09;10.38;;;8.77;;
76403;SDS011;65232;48.358;2.122;2023-02-28T01:01:36;12.35;;;10.00;;
76403;SDS011;65232;48.358;2.122;2023-02-28T01:02:02;10.02;;;8.90;;
76403;SDS011;65232;48.358;2.122;2023-02-28T01:02:27;11.30;;;8.90;;
76403;SDS011;65232;48.358;2.122;2023-02-28T01:02:53;14.18;;;9.65;;
76403;SDS011;65232;48.358;2.122;2023-02-28T01:03:19;10.70;;;9.35;;
76403;SDS011;65232;48.358;2.122;2023-02-28T01:03:45;11.32;;;8.88;;
76403;SDS011;65232;48.358;2.122;2023-02-28T01:04:11;10.82;;;9.65;;
76403;SDS011;65232;48.358;2.122;2023-02-28T01:04:37;10.77;;;9.68;;
76403;SDS011;65232;48.358;2.122;2023-02-28T01:05:03;12.38;;;9.35;;
76403;SDS011;65232;48.358;2.122;2023-02-28T01:05:55;9.52;;;8.48;;
76403;SDS011;65232;48.358;2.122;2023-02-28T01:06:20;12.90;;;9.15;;
76403;SDS011;65232;48.358;2.122;2023-02-28T01:06:45;11.45;;;8.85;;
76403;SDS011;65232;48.358;2.122;2023-02-28T01:07:11;12.77;;;10.00;;
76403;SDS011;65232;48.358;2.122;2023-02-28T01:07:37;11.45;;;9.23;;
76403;SDS011;65232;48.358;2.122;2023-02-28T01:08:03;10.50;;;9.00;;
76403;SDS011;65232;48.358;2.122;2023-02-28T01:08:29;9.90;;;8.90;;
76403;SDS011;65232;48.358;2.122;2023-02-28T01:08:54;10.60;;;9.57;;
76403;SDS011;65232;48.358;2.122;2023-02-28T01:09:21;13.00;;;9.77;;
76403;SDS011;65232;48.358;2.122;2023-02-28T01:09:46;10.85;;;8.82;;
76403;SDS011;65232;48.358;2.122;2023-02-28T01:10:12;10.10;;;9.02;;
76403;SDS011;65232;48.358;2.122;2023-02-28T01:10:37;10.63;;;9.40;;
76403;SDS011;65232;48.358;2.122;2023-02-28T01:11:07;12.38;;;9.65;;
76403;SDS011;65232;48.358;2.122;2023-02-28T01:11:39;10.75;;;9.65;;
76403;SDS011;65232;48.358;2.122;2023-02-28T01:12:06;10.35;;;9.32;;
76403;SDS011;65232;48.358;2.122;2023-02-28T01:12:33;11.40;;;9.52;;
76403;SDS011;65232;48.358;2.122;2023-02-28T01:12:58;10.73;;;9.00;;
76403;SDS011;65232;48.358;2.122;2023-02-28T01:13:24;10.95;;;8.98;;
76403;SDS011;65232;48.358;2.122;2023-02-28T01:13:50;10.32;;;9.27;;
76403;SDS011;65232;48.358;2.122;2023-02-28T01:14:16;10.63;;;9.52;;
76403;SDS011;65232;48.358;2.122;2023-02-28T01:14:44;11.18;;;9.77;;
76403;SDS011;65232;48.358;2.122;2023-02-28T01:15:10;10.63;;;9.18;;
76403;SDS011;65232;48.358;2.122;2023-02-28T01:16:03;10.20;;;9.10;;
76403;SDS011;65232;48.358;2.122;2023-02-28T01:16:29;10.98;;;9.45;;
76403;SDS011;65232;48.358;2.122;2023-02-28T01:16:55;11.18;;;9.68;;
76403;SDS011;65232;48.358;2.122;2023-02-28T01:17:21;11.57;;;9.57;;
76403;SDS011;65232;48.358;2.122;2023-02-28T01:17:46;12.60;;;9.55;;
76403;SDS011;65232;48.358;2.122;2023-02-28T01:18:12;9.63;;;8.50;;
76403;SDS011;65232;48.358;2.122;2023-02-28T01:18:37;10.85;;;9.77;;
76403;SDS011;65232;48.358;2.122;2023-02-28T01:19:03;13.70;;;9.85;;
76403;SDS011;65232;48.358;2.122;2023-02-28T01:19:29;12.23;;;9.95;;
76403;SDS011;65232;48.358;2.122;2023-02-28T01:19:54;13.55;;;9.18;;
76403;SDS011;65232;48.358;2.122;2023-02-28T01:20:23;10.93;;;9.13;;
76403;SDS011;65232;48.358;2.122;2023-02-28T01:20:49;10.88;;;9.50;;
76403;SDS011;65232;48.358;2.122;2023-02-28T01:21:17;11.85;;;9.43;;
76403;SDS011;65232;48.358;2.122;2023-02-28T01:21:44;13.25;;;9.27;;
76403;SDS011;65232;48.358;2.122;2023-02-28T01:22:11;11.10;;;9.38;;
76403;SDS011;65232;48.358;2.122;2023-02-28T01:22:37;11.25;;;9.18;;
76403;SDS011;65232;48.358;2.122;2023-02-28T01:23:02;10.45;;;8.80;;
76403;SDS011;65232;48.358;2.122;2023-02-28T01:23:28;10.10;;;9.10;;
76403;SDS011;65232;48.358;2.122;2023-02-28T01:23:55;9.57;;;8.52;;
76403;SDS011;65232;48.358;2.122;2023-02-28T01:24:22;9.90;;;8.80;;
76403;SDS011;65232;48.358;2.122;2023-02-28T01:24:47;9.75;;;8.75;;
76403;SDS011;65232;48.358;2.122;2023-02-28T01:25:13;10.55;;;8.90;;
76403;SDS011;65232;48.358;2.122;2023-02-28T01:25:38;9.95;;;8.82;;
76403;SDS011;65232;48.358;2.122;2023-02-28T01:26:05;11.75;;;9.13;;
76403;SDS011;65232;48.358;2.122;2023-02-28T01:26:31;9.88;;;8.70;;
76403;SDS011;65232;48.358;2.122;2023-02-28T01:26:57;12.43;;;8.95;;
76403;SDS011;65232;48.358;2.122;2023-02-28T01:27:22;12.13;;;9.50;;
76403;SDS011;65232;48.358;2.122;2023-02-28T01:27:48;10.02;;;9.07;;
76403;SDS011;65232;48.358;2.122;2023-02-28T01:28:13;10.10;;;8.65;;
76403;SDS011;65232;48.358;2.122;2023-02-28T01:28:39;10.57;;;9.52;;
76403;SDS011;65232;48.358;2.122;2023-02-28T01:29:05;10.82;;;9.65;;
76403;SDS011;65232;48.358;2.122;2023-02-28T01:29:30;10.38;;;9.20;;
76403;SDS011;65232;48.358;2.122;2023-02-28T01:29:56;11.82;;;9.73;;
76403;SDS011;65232;48.358;2.122;2023-02-28T01:30:21;10.07;;;9.07;;
76403;SDS011;65232;48.358;2.122;2023-02-28T01:30:47;11.00;;;8.90;;
76403;SDS011;65232;48.358;2.122;2023-02-28T01:31:14;10.70;;;9.18;;
76403;SDS011;65232;48.358;2.122;2023-02-28T01:31:39;10.73;;;9.18;;
76403;SDS011;65232;48.358;2.122;2023-02-28T01:32:07;11.52;;;8.85;;
76403;SDS011;65232;48.358;2.122;2023-02-28T01:32:34;11.38;;;10.20;;
76403;SDS011;65232;48.358;2.122;2023-02-28T01:33:00;10.45;;;9.32;;
76403;SDS011;65232;48.358;2.122;2023-02-28T01:33:26;11.05;;;9.95;;
76403;SDS011;65232;48.358;2.122;2023-02-28T01:33:51;10.23;;;9.25;;
76403;SDS011;65232;48.358;2.122;2023-02-28T01:34:17;10.50;;;9.10;;
76403;SDS011;65232;48.358;2.122;2023-02-28T01:34:44;10.15;;;8.57;;
76403;SDS011;65232;48.358;2.122;2023-02-28T01:35:09;10.30;;;9.23;;
76403;SDS011;65232;48.358;2.122;2023-02-28T01:35:36;10.32;;;9.23;;
76403;SDS011;65232;48.358;2.122;2023-02-28T01:36:03;10.50;;;8.90;;
76403;SDS011;65232;48.358;2.122;2023-02-28T01:36:34;11.10;;;9.15;;
76403;SDS011;65232;48.358;2.122;2023-02-28T01:37:01;12.70;;;8.65;;
76403;SDS011;65232;48.358;2.122;2023-02-28T01:37:28;9.35;;;8.32;;
76403;SDS011;65232;48.358;2.122;2023-02-28T01:37:53;10.13;;;8.50;;
76403;SDS011;65232;48.358;2.122;2023-02-28T01:38:19;10.63;;;9.00;;
76403;SDS011;65232;48.358;2.122;2023-02-28T01:38:45;9.38;;;8.40;;
76403;SDS011;65232;48.358;2.122;2023-02-28T01:39:12;11.68;;;8.95;;
76403;SDS011;65232;48.358;2.122;2023-02-28T01:39:37;12.50;;;9.48;;
76403;SDS011;65232;48.358;2.122;2023-02-28T01:40:03;10.18;;;9.18;;
76403;SDS011;65232;48.358;2.122;2023-02-28T01:40:29;9.85;;;8.90;;
76403;SDS011;65232;48.358;2.122;2023-02-28T01:40:55;11.40;;;10.00;;
76403;SDS011;65232;48.358;2.122;2023-02-28T01:41:47;11.65;;;9.27;;
76403;SDS011;65232;48.358;2.122;2023-02-28T01:42:13;11.05;;;9.48;;
76403;SDS011;65232;48.358;2.122;2023-02-28T01:42:38;10.20;;;9.15;;
76403;SDS011;65232;48.358;2.122;2023-02-28T01:43:07;10.35;;;8.93;;
76403;SDS011;65232;48.358;2.122;2023-02-28T01:45:18;10.48;;;7.82;;
76403;SDS011;65232;48.358;2.122;2023-02-28T01:45:43;10.95;;;7.65;;
76403;SDS011;65232;48.358;2.122;2023-02-28T01:46:09;8.68;;;7.65;;
76403;SDS011;65232;48.358;2.122;2023-02-28T01:46:36;10.95;;;8.45;;
76403;SDS011;65232;48.358;2.122;2023-02-28T01:47:01;9.00;;;8.07;;
76403;SDS011;65232;48.358;2.122;2023-02-28T01:48:06;13.90;;;7.43;;
76403;SDS011;65232;48.358;2.122;2023-02-28T01:48:34;10.20;;;8.10;;
76403;SDS011;65232;48.358;2.122;2023-02-28T01:49:36;8.90;;;7.95;;
76403;SDS011;65232;48.358;2.122;2023-02-28T01:50:02;11.35;;;8.45;;
76403;SDS011;65232;48.358;2.122;2023-02-28T01:50:32;10.18;;;8.02;;
76403;SDS011;65232;48.358;2.122;2023-02-28T01:51:05;8.90;;;7.78;;
76403;SDS011;65232;48.358;2.122;2023-02-28T01:51:56;7.72;;;6.93;;
76403;SDS011;65232;48.358;2.122;2023-02-28T01:52:23;8.07;;;6.78;;
76403;SDS011;65232;48.358;2.122;2023-02-28T01:52:52;8.45;;;7.43;;
76403;SDS011;65232;48.358;2.122;2023-02-28T01:53:24;8.75;;;7.43;;
76403;SDS011;65232;48.358;2.122;2023-02-28T01:53:59;7.90;;;6.90;;
76403;SDS011;65232;48.358;2.122;2023-02-28T01:54:38;9.00;;;7.00;;
76403;SDS011;65232;48.358;2.122;2023-02-28T01:55:04;8.27;;;7.38;;
76403;SDS011;65232;48.358;2.122;2023-02-28T01:55:32;9.93;;;7.32;;
76403;SDS011;65232;48.358;2.122;2023-02-28T01:55:58;8.50;;;6.68;;
76403;SDS011;65232;48.358;2.122;2023-02-28T01:56:25;8.60;;;7.68;;
76403;SDS011;65232;48.358;2.122;2023-02-28T01:56:58;8.85;;;7.40;;
76403;SDS011;65232;48.358;2.122;2023-02-28T01:57:33;7.45;;;6.72;;
76403;SDS011;65232;48.358;2.122;2023-02-28T01:58:04;9.90;;;6.72;;
76403;SDS011;65232;48.358;2.122;2023-02-28T01:58:32;10.48;;;7.10;;
76403;SDS011;65232;48.358;2.122;2023-02-28T01:58:58;7.55;;;6.70;;
76403;SDS011;65232;48.358;2.122;2023-02-28T01:59:29;9.95;;;7.40;;
76403;SDS011;65232;48.358;2.122;2023-02-28T02:00:04;10.80;;;7.72;;
76403;SDS011;65232;48.358;2.122;2023-02-28T02:00:38;10.52;;;8.43;;
76403;SDS011;65232;48.358;2.122;2023-02-28T02:01:05;7.68;;;6.72;;
76403;SDS011;65232;48.358;2.122;2023-02-28T02:01:32;9.80;;;7.10;;
76403;SDS011;65232;48.358;2.122;2023-02-28T02:02:00;8.65;;;7.13;;
76403;SDS011;65232;48.358;2.122;2023-02-28T02:02:27;9.90;;;7.30;;
76403;SDS011;65232;48.358;2.122;2023-02-28T02:02:55;8.25;;;7.32;;
76403;SDS011;65232;48.358;2.122;2023-02-28T02:03:23;9.75;;;7.25;;
76403;SDS011;65232;48.358;2.122;2023-02-28T02:03:50;8.80;;;7.50;;
76403;SDS011;65232;48.358;2.122;2023-02-28T02:04:20;8.80;;;6.82;;
76403;SDS011;65232;48.358;2.122;2023-02-28T02:04:53;8.65;;;7.30;;
76403;SDS011;65232;48.358;2.122;2023-02-28T02:05:27;7.47;;;6.35;;
76403;SDS011;65232;48.358;2.122;2023-02-28T02:05:56;7.88;;;7.10;;
76403;SDS011;65232;48.358;2.122;2023-02-28T02:06:22;8.70;;;7.63;;
76403;SDS011;65232;48.358;2.122;2023-02-28T02:06:51;9.18;;;7.68;;
76403;SDS011;65232;48.358;2.122;2023-02-28T02:07:17;9.93;;;7.65;;
76403;SDS011;65232;48.358;2.122;2023-02-28T02:07:44;9.90;;;7.22;;
76403;SDS011;65232;48.358;2.122;2023-02-28T02:08:13;10.52;;;7.75;;
76403;SDS011;65232;48.358;2.122;2023-02-28T02:08:48;7.68;;;6.28;;
76403;SDS011;65232;48.358;2.122;2023-02-28T02:09:13;8.13;;;6.72;;
76403;SDS011;65232;48.358;2.122;2023-02-28T02:09:39;8.05;;;7.20;;
76403;SDS011;65232;48.358;2.122;2023-02-28T02:11:00;8.15;;;6.68;;
76403;SDS011;65232;48.358;2.122;2023-02-28T02:11:27;7.57;;;6.82;;
76403;SDS011;65232;48.358;2.122;2023-02-28T02:11:55;7.80;;;6.43;;
76403;SDS011;65232;48.358;2.122;2023-02-28T02:14:30;8.32;;;6.35;;
76403;SDS011;65232;48.358;2.122;2023-02-28T02:15:03;8.35;;;6.60;;
76403;SDS011;65232;48.358;2.122;2023-02-28T02:16:21;7.93;;;6.13;;
76403;SDS011;65232;48.358;2.122;2023-02-28T02:17:48;8.15;;;5.82;;
76403;SDS011;65232;48.358;2.122;2023-02-28T02:18:26;8.07;;;6.38;;
76403;SDS011;65232;48.358;2.122;2023-02-28T02:19:53;7.05;;;6.00;;
76403;SDS011;65232;48.358;2.122;2023-02-28T02:20:32;5.85;;;5.15;;
76403;SDS011;65232;48.358;2.122;2023-02-28T02:23:29;7.05;;;5.50;;
76403;SDS011;65232;48.358;2.122;2023-02-28T02:25:29;9.25;;;5.72;;
76403;SDS011;65232;48.358;2.122;2023-02-28T02:27:20;8.98;;;5.72;;
76403;SDS011;65232;48.358;2.122;2023-02-28T02:36:24;7.18;;;5.75;;
76403;SDS011;65232;48.358;2.122;2023-02-28T02:38:44;8.43;;;6.30;;
76403;SDS011;65232;48.358;2.122;2023-02-28T02:39:16;8.57;;;6.15;;
76403;SDS011;65232;48.358;2.122;2023-02-28T02:40:36;8.80;;;5.63;;
76403;SDS011;65232;48.358;2.122;2023-02-28T02:41:58;7.25;;;6.35;;
76403;SDS011;65232;48.358;2.122;2023-02-28T02:42:28;7.03;;;5.85;;
76403;SDS011;65232;48.358;2.122;2023-02-28T02:43:07;6.78;;;5.93;;
76403;SDS011;65232;48.358;2.122;2023-02-28T02:43:40;7.50;;;6.53;;
76403;SDS011;65232;48.358;2.122;2023-02-28T02:44:24;7.70;;;5.70;;
76403;SDS011;65232;48.358;2.122;2023-02-28T02:45:00;10.15;;;6.30;;
76403;SDS011;65232;48.358;2.122;2023-02-28T02:45:36;7.70;;;6.15;;
76403;SDS011;65232;48.358;2.122;2023-02-28T02:46:18;8.30;;;5.65;;
76403;SDS011;65232;48.358;2.122;2023-02-28T02:46:44;6.63;;;5.85;;
76403;SDS011;65232;48.358;2.122;2023-02-28T02:47:38;8.00;;;5.65;;
76403;SDS011;65232;48.358;2.122;2023-02-28T02:48:05;7.32;;;5.03;;
76403;SDS011;65232;48.358;2.122;2023-02-28T02:48:34;7.45;;;5.95;;
76403;SDS011;65232;48.358;2.122;2023-02-28T02:49:05;7.43;;;5.80;;
76403;SDS011;65232;48.358;2.122;2023-02-28T02:49:35;7.57;;;5.70;;
76403;SDS011;65232;48.358;2.122;2023-02-28T02:50:05;6.28;;;5.13;;
76403;SDS011;65232;48.358;2.122;2023-02-28T02:51:05;6.68;;;5.00;;
76403;SDS011;65232;48.358;2.122;2023-02-28T02:51:38;7.28;;;5.88;;
76403;SDS011;65232;48.358;2.122;2023-02-28T02:52:08;6.07;;;4.95;;
76403;SDS011;65232;48.358;2.122;2023-02-28T02:52:38;7.90;;;5.63;;
76403;SDS011;65232;48.358;2.122;2023-02-28T02:53:08;7.45;;;5.38;;
76403;SDS011;65232;48.358;2.122;2023-02-28T02:53:37;8.00;;;6.15;;
76403;SDS011;65232;48.358;2.122;2023-02-28T02:54:08;6.70;;;5.90;;
76403;SDS011;65232;48.358;2.122;2023-02-28T02:54:43;7.50;;;5.25;;
76403;SDS011;65232;48.358;2.122;2023-02-28T02:55:12;8.98;;;5.65;;
76403;SDS011;65232;48.358;2.122;2023-02-28T02:55:39;8.18;;;6.35;;
76403;SDS011;65232;48.358;2.122;2023-02-28T02:56:09;7.90;;;5.25;;
76403;SDS011;65232;48.358;2.122;2023-02-28T02:56:37;8.30;;;5.50;;
76403;SDS011;65232;48.358;2.122;2023-02-28T02:57:07;9.02;;;5.93;;
76403;SDS011;65232;48.358;2.122;2023-02-28T02:57:46;6.88;;;5.43;;
76403;SDS011;65232;48.358;2.122;2023-02-28T02:58:16;8.05;;;5.60;;
76403;SDS011;65232;48.358;2.122;2023-02-28T02:58:47;7.35;;;5.45;;
76403;SDS011;65232;48.358;2.122;2023-02-28T02:59:17;7.45;;;5.43;;
76403;SDS011;65232;48.358;2.122;2023-02-28T02:59:47;7.30;;;5.30;;
76403;SDS011;65232;48.358;2.122;2023-02-28T03:00:16;8.23;;;5.38;;
76403;SDS011;65232;48.358;2.122;2023-02-28T03:00:47;7.47;;;5.63;;
76403;SDS011;65232;48.358;2.122;2023-02-28T03:01:19;8.75;;;5.47;;
76403;SDS011;65232;48.358;2.122;2023-02-28T03:01:53;7.22;;;5.60;;
76403;SDS011;65232;48.358;2.122;2023-02-28T03:02:22;7.35;;;5.85;;
76403;SDS011;65232;48.358;2.122;2023-02-28T03:03:16;8.93;;;5.22;;
76403;SDS011;65232;48.358;2.122;2023-02-28T03:03:45;7.25;;;5.30;;
76403;SDS011;65232;48.358;2.122;2023-02-28T03:04:13;8.18;;;5.78;;
76403;SDS011;65232;48.358;2.122;2023-02-28T03:04:43;7.15;;;5.30;;
76403;SDS011;65232;48.358;2.122;2023-02-28T03:05:16;6.63;;;4.93;;
76403;SDS011;65232;48.358;2.122;2023-02-28T03:05:49;7.22;;;5.15;;
76403;SDS011;65232;48.358;2.122;2023-02-28T03:06:16;9.15;;;5.95;;
76403;SDS011;65232;48.358;2.122;2023-02-28T03:06:41;7.88;;;5.90;;
76403;SDS011;65232;48.358;2.122;2023-02-28T03:07:08;6.90;;;5.50;;
76403;SDS011;65232;48.358;2.122;2023-02-28T03:07:33;6.03;;;5.20;;
76403;SDS011;65232;48.358;2.122;2023-02-28T03:07:59;6.07;;;5.47;;
76403;SDS011;65232;48.358;2.122;2023-02-28T03:08:28;6.72;;;5.75;;
76403;SDS011;65232;48.358;2.122;2023-02-28T03:08:54;7.85;;;6.20;;
76403;SDS011;65232;48.358;2.122;2023-02-28T03:09:22;6.07;;;5.22;;
76403;SDS011;65232;48.358;2.122;2023-02-28T03:09:51;7.10;;;5.25;;
76403;SDS011;65232;48.358;2.122;2023-02-28T03:10:56;6.07;;;4.93;;
76403;SDS011;65232;48.358;2.122;2023-02-28T03:11:24;6.85;;;5.50;;
76403;SDS011;65232;48.358;2.122;2023-02-28T03:11:50;8.32;;;5.80;;
76403;SDS011;65232;48.358;2.122;2023-02-28T03:12:17;6.45;;;5.55;;
76403;SDS011;65232;48.358;2.122;2023-02-28T03:12:47;7.55;;;5.80;;
76403;SDS011;65232;48.358;2.122;2023-02-28T03:14:13;8.23;;;5.45;;
76403;SDS011;65232;48.358;2.122;2023-02-28T03:16:28;8.00;;;5.38;;
76403;SDS011;65232;48.358;2.122;2023-02-28T03:17:56;7.35;;;5.38;;
76403;SDS011;65232;48.358;2.122;2023-02-28T03:21:32;5.65;;;4.65;;
76403;SDS011;65232;48.358;2.122;2023-02-28T03:23:23;6.15;;;5.00;;